createdAt,value
2022-10-21T00:01:34.762Z,43.40
2022-10-21T00:04:06.452Z,42.40
2022-10-21T00:06:37.856Z,39.90
2022-10-21T00:09:09.393Z,40.00
2022-10-21T00:11:40.980Z,41.10
2022-10-21T00:14:12.489Z,46.20
2022-10-21T00:16:43.999Z,42.00
2022-10-21T00:19:15.447Z,44.50
2022-10-21T00:21:46.843Z,44.00
2022-10-21T00:24:18.254Z,41.50
2022-10-21T00:26:52.105Z,48.50
2022-10-21T00:29:23.564Z,50.20
2022-10-21T00:31:56.818Z,50.90
2022-10-21T00:34:30.764Z,45.00
2022-10-21T00:37:02.986Z,40.60
2022-10-21T00:39:34.647Z,42.20
2022-10-21T00:42:08.016Z,44.20
2022-10-21T00:44:41.207Z,42.10
2022-10-21T00:47:18.355Z,40.00
2022-10-21T00:49:56.020Z,38.90
2022-10-21T00:52:28.923Z,38.80
2022-10-21T00:55:04.174Z,37.80
2022-10-21T00:57:37.938Z,40.00
2022-10-21T01:00:13.698Z,36.00
2022-10-21T01:02:45.914Z,32.90
2022-10-21T01:05:18.629Z,39.90
2022-10-21T01:07:52.087Z,39.10
2022-10-21T01:10:23.596Z,39.30
2022-10-21T01:13:16.936Z,35.00
2022-10-21T01:15:56.447Z,33.20
2022-10-21T01:18:36.937Z,31.10
2022-10-21T01:21:40.485Z,34.10
2022-10-21T01:24:47.965Z,42.00
2022-10-21T01:27:37.427Z,38.30
2022-10-21T01:30:20.767Z,36.50
2022-10-21T01:33:11.794Z,39.20
2022-10-21T01:35:50.315Z,32.70
2022-10-21T01:38:45.515Z,34.40
2022-10-21T01:41:26.191Z,34.70
2022-10-21T01:44:06.890Z,34.80
2022-10-21T01:46:45.839Z,32.10
2022-10-21T01:49:25.766Z,40.10
2022-10-21T01:51:58.011Z,32.70
2022-10-21T01:54:33.555Z,37.40
2022-10-21T01:57:07.504Z,34.50
2022-10-21T01:59:43.902Z,32.40
2022-10-21T02:02:17.210Z,39.60
2022-10-21T02:04:51.785Z,41.00
2022-10-21T02:07:23.271Z,37.40
2022-10-21T02:09:54.683Z,35.70
2022-10-21T02:12:29.789Z,35.90
2022-10-21T02:15:03.882Z,40.00
2022-10-21T02:17:40.175Z,33.60
2022-10-21T02:20:14.873Z,34.80
2022-10-21T02:22:47.981Z,31.10
2022-10-21T02:25:22.627Z,35.90
2022-10-21T02:27:55.943Z,35.50
2022-10-21T02:30:29.927Z,32.20
2022-10-21T02:33:07.062Z,25.90
2022-10-21T02:35:45.175Z,28.10
2022-10-21T02:38:23.782Z,29.80
2022-10-21T02:41:00.919Z,31.10
2022-10-21T02:43:37.688Z,30.30
2022-10-21T02:46:12.639Z,31.20
2022-10-21T02:48:48.367Z,32.30
2022-10-21T02:51:20.028Z,27.80
2022-10-21T02:53:51.500Z,31.00
2022-10-21T02:56:22.949Z,32.50
2022-10-21T02:58:54.540Z,33.80
2022-10-21T03:01:26.058Z,36.30
2022-10-21T03:03:57.687Z,40.90
2022-10-21T03:06:29.167Z,34.10
2022-10-21T03:09:00.621Z,33.60
2022-10-21T03:11:32.247Z,36.10
2022-10-21T03:14:03.809Z,33.80
2022-10-21T03:16:35.261Z,34.60
2022-10-21T03:19:06.687Z,31.40
2022-10-21T03:21:38.186Z,33.00
2022-10-21T03:24:15.436Z,36.70
2022-10-21T03:26:51.315Z,29.60
2022-10-21T03:29:22.689Z,35.30
2022-10-21T03:31:54.202Z,34.30
2022-10-21T03:34:25.630Z,33.70
2022-10-21T03:36:57.060Z,33.90
2022-10-21T03:39:28.507Z,39.60
2022-10-21T03:42:00.020Z,37.10
2022-10-21T03:44:31.469Z,37.10
2022-10-21T03:47:02.952Z,32.90
2022-10-21T03:52:07.225Z,29.20
2022-10-21T03:54:38.806Z,24.50
2022-10-21T03:57:10.336Z,29.20
2022-10-21T03:59:41.755Z,28.40
2022-10-21T04:02:13.149Z,28.70
2022-10-21T04:04:44.576Z,36.70
2022-10-21T04:07:15.983Z,29.50
2022-10-21T04:09:47.417Z,29.80
2022-10-21T04:12:18.972Z,36.60
2022-10-21T04:14:50.589Z,42.20
2022-10-21T04:17:22.598Z,56.80
2022-10-21T04:19:54.035Z,43.80
2022-10-21T04:22:25.509Z,39.60
2022-10-21T04:24:59.693Z,39.40
2022-10-21T04:27:33.975Z,45.30
2022-10-21T04:30:06.823Z,35.30
2022-10-21T04:32:38.469Z,37.40
2022-10-21T04:35:10.934Z,44.20
2022-10-21T04:37:43.339Z,41.30
2022-10-21T04:40:15.178Z,45.10
2022-10-21T04:42:52.473Z,47.70
2022-10-21T04:45:24.016Z,47.50
2022-10-21T04:47:55.453Z,47.30
2022-10-21T04:50:27.195Z,90.40
2022-10-21T04:52:58.990Z,108.80
2022-10-21T04:55:30.381Z,160.90
2022-10-21T04:58:01.873Z,152.80
2022-10-21T05:00:33.477Z,156.20
2022-10-21T05:03:05.210Z,138.80
2022-10-21T05:05:36.598Z,121.10
2022-10-21T05:08:11.509Z,117.10
2022-10-21T05:10:43.902Z,107.00
2022-10-21T05:13:16.623Z,67.50
2022-10-21T05:15:48.202Z,77.60
2022-10-21T05:18:19.753Z,75.70
2022-10-21T05:20:55.294Z,62.00
2022-10-21T05:23:28.093Z,55.00
2022-10-21T05:25:59.623Z,48.20
2022-10-21T05:28:31.032Z,42.40
2022-10-21T05:31:03.977Z,44.30
2022-10-21T05:33:35.491Z,49.90
2022-10-21T05:36:08.666Z,40.80
2022-10-21T05:38:40.163Z,42.20
2022-10-21T05:41:12.245Z,34.60
2022-10-21T05:43:43.727Z,36.10
2022-10-21T05:46:15.286Z,53.60
2022-10-21T05:51:27.043Z,61.90
2022-10-21T05:53:59.699Z,54.80
2022-10-21T05:56:31.193Z,54.90
2022-10-21T05:59:05.449Z,51.70
2022-10-21T06:01:40.345Z,51.60
2022-10-21T06:04:11.805Z,57.90
2022-10-21T06:06:43.244Z,129.50
2022-10-21T06:09:14.813Z,46.20
2022-10-21T06:11:46.706Z,53.10
2022-10-21T06:14:19.969Z,53.70
2022-10-21T06:16:51.398Z,56.60
2022-10-21T06:19:22.873Z,65.90
2022-10-21T06:21:54.593Z,47.60
2022-10-21T06:24:27.589Z,44.00
2022-10-21T06:26:58.990Z,42.70
2022-10-21T06:29:30.618Z,41.30
2022-10-21T06:32:02.062Z,44.50
2022-10-21T06:34:33.732Z,40.20
2022-10-21T06:37:05.220Z,34.20
2022-10-21T06:39:36.704Z,34.00
2022-10-21T06:42:08.178Z,37.50
2022-10-21T06:44:40.677Z,46.80
2022-10-21T06:47:12.348Z,47.10
2022-10-21T06:49:43.807Z,53.20
2022-10-21T06:52:15.369Z,66.50
2022-10-21T06:54:47.138Z,86.10
2022-10-21T06:57:18.531Z,53.10
2022-10-21T06:59:50.865Z,48.90
2022-10-21T07:02:24.301Z,54.10
2022-10-21T07:04:57.790Z,51.50
2022-10-21T07:09:59.237Z,48.50
2022-10-21T07:12:31.950Z,47.10
2022-10-21T07:15:03.433Z,45.30
2022-10-21T07:17:34.937Z,47.10
2022-10-21T07:20:07.859Z,45.80
2022-10-21T07:22:39.304Z,38.70
2022-10-21T07:25:13.708Z,37.20
2022-10-21T07:27:47.589Z,33.10
2022-10-21T07:30:23.714Z,31.20
2022-10-21T07:32:55.144Z,36.80
2022-10-21T07:35:26.661Z,34.10
2022-10-21T07:37:58.115Z,34.30
2022-10-21T07:40:30.218Z,39.20
2022-10-21T07:43:01.755Z,33.20
2022-10-21T07:45:33.253Z,35.30
2022-10-21T07:48:04.710Z,33.70
2022-10-21T07:50:36.163Z,32.90
2022-10-21T07:53:12.337Z,34.00
2022-10-21T07:55:44.502Z,29.10
2022-10-21T07:58:15.951Z,30.00
2022-10-21T08:00:48.054Z,34.80
2022-10-21T08:03:19.468Z,31.70
2022-10-21T08:05:52.084Z,35.40
2022-10-21T08:08:23.768Z,31.90
2022-10-21T08:10:56.457Z,28.20
2022-10-21T08:13:28.235Z,30.80
2022-10-21T08:16:00.046Z,32.60
2022-10-21T08:18:31.858Z,31.20
2022-10-21T08:21:05.640Z,29.30
2022-10-21T08:23:38.305Z,30.40
2022-10-21T08:26:18.067Z,30.00
2022-10-21T08:28:49.595Z,28.70
2022-10-21T08:31:23.176Z,30.50
2022-10-21T08:36:26.523Z,27.20
2022-10-21T08:38:59.510Z,38.00
2022-10-21T08:41:46.769Z,33.10
2022-10-21T08:44:30.008Z,34.40
2022-10-21T08:49:50.081Z,30.00
2022-10-21T08:52:27.990Z,31.10
2022-10-21T08:55:02.818Z,29.20
2022-10-21T08:57:36.017Z,32.80
2022-10-21T09:00:16.740Z,28.10
2022-10-21T09:03:00.927Z,23.10
2022-10-21T09:05:45.227Z,29.40
2022-10-21T09:11:03.944Z,26.90
2022-10-21T09:13:53.673Z,27.30
2022-10-21T09:16:37.784Z,27.20
2022-10-21T09:22:33.248Z,21.60
2022-10-21T09:25:04.846Z,22.30
2022-10-21T09:27:55.020Z,27.80
2022-10-21T09:30:27.951Z,26.30
2022-10-21T09:33:01.528Z,28.10
2022-10-21T09:38:17.998Z,27.50
2022-10-21T09:40:59.247Z,27.00
2022-10-21T09:43:32.336Z,31.00
2022-10-21T09:46:04.922Z,26.70
2022-10-21T09:49:08.130Z,35.60
2022-10-21T09:51:40.246Z,25.40
2022-10-21T09:54:16.015Z,23.80
2022-10-21T09:56:51.816Z,23.20
2022-10-21T09:59:29.097Z,26.90
2022-10-21T10:02:16.036Z,28.50
2022-10-21T10:04:48.706Z,22.40
2022-10-21T10:07:33.038Z,24.70
2022-10-21T10:10:28.957Z,26.90
2022-10-21T10:13:01.553Z,25.80
2022-10-21T10:15:38.692Z,26.30
2022-10-21T10:18:23.175Z,20.40
2022-10-21T10:21:11.764Z,23.10
2022-10-21T10:23:49.061Z,23.50
2022-10-21T10:26:33.281Z,22.50
2022-10-21T10:29:11.630Z,23.00
2022-10-21T10:31:50.917Z,27.40
2022-10-21T10:34:28.367Z,28.30
2022-10-21T10:37:06.863Z,25.50
2022-10-21T10:39:40.493Z,21.10
2022-10-21T10:42:17.361Z,26.40
2022-10-21T10:44:52.803Z,22.60
2022-10-21T10:47:29.064Z,21.40
2022-10-21T10:50:00.704Z,21.40
2022-10-21T10:52:32.743Z,20.90
2022-10-21T10:55:24.332Z,20.40
2022-10-21T10:58:12.769Z,19.80
2022-10-21T11:00:51.090Z,17.80
2022-10-21T11:03:28.507Z,22.10
2022-10-21T11:06:08.109Z,20.10
2022-10-21T11:08:46.897Z,20.90
2022-10-21T11:11:23.581Z,18.60
2022-10-21T11:13:55.779Z,17.00
2022-10-21T11:17:00.707Z,20.10
2022-10-21T11:19:42.593Z,18.80
2022-10-21T11:22:29.626Z,16.80
2022-10-21T11:25:07.233Z,16.20
2022-10-21T11:27:53.158Z,17.20
2022-10-21T11:30:32.752Z,17.00
2022-10-21T11:33:20.167Z,18.20
2022-10-21T11:36:04.216Z,18.20
2022-10-21T11:41:28.255Z,17.90
2022-10-21T11:44:13.001Z,15.70
2022-10-21T11:46:59.452Z,15.50
2022-10-21T11:49:46.721Z,15.70
2022-10-21T11:52:33.644Z,15.50
2022-10-21T11:55:39.036Z,15.00
2022-10-21T11:58:23.779Z,10.10
2022-10-21T12:01:09.796Z,13.90
2022-10-21T12:04:20.580Z,11.10
2022-10-21T12:07:02.359Z,12.90
2022-10-21T12:09:41.358Z,15.10
2022-10-21T12:12:16.071Z,14.80
2022-10-21T12:14:51.107Z,11.70
2022-10-21T12:17:24.194Z,13.00
2022-10-21T12:20:00.419Z,15.30
2022-10-21T12:22:34.911Z,16.50
2022-10-21T12:25:20.774Z,14.20
2022-10-21T12:28:00.463Z,16.50
2022-10-21T12:30:40.323Z,15.10
2022-10-21T12:33:18.995Z,10.80
2022-10-21T12:35:54.936Z,12.00
2022-10-21T12:38:44.289Z,12.20
2022-10-21T12:41:31.755Z,18.70
2022-10-21T12:44:14.769Z,15.50
2022-10-21T12:46:48.145Z,11.60
2022-10-21T12:49:30.587Z,13.70
2022-10-21T12:52:15.089Z,14.40
2022-10-21T12:54:56.948Z,14.10
2022-10-21T12:57:31.621Z,16.00
2022-10-21T13:00:49.270Z,13.70
2022-10-21T13:03:43.763Z,14.40
2022-10-21T13:06:16.061Z,12.90
2022-10-21T13:08:56.372Z,14.10
2022-10-21T13:11:40.998Z,14.60
2022-10-21T13:14:41.526Z,14.70
2022-10-21T13:17:31.252Z,16.40
2022-10-21T13:20:38.597Z,16.20
2022-10-21T13:23:44.501Z,14.30
2022-10-21T13:26:22.022Z,16.60
2022-10-21T13:29:09.412Z,15.80
2022-10-21T13:31:44.281Z,17.70
2022-10-21T13:34:30.218Z,15.10
2022-10-21T13:37:01.875Z,19.10
2022-10-21T13:39:37.119Z,15.60
2022-10-21T13:42:16.858Z,17.80
2022-10-21T13:45:03.966Z,14.80
2022-10-21T13:47:36.456Z,16.10
2022-10-21T13:50:18.301Z,19.30
2022-10-21T13:52:51.036Z,17.70
2022-10-21T13:55:25.573Z,16.50
2022-10-21T13:57:58.605Z,15.60
2022-10-21T14:00:33.188Z,14.40
2022-10-21T14:03:07.079Z,15.90
2022-10-21T14:05:47.490Z,17.80
2022-10-21T14:08:26.963Z,16.90
2022-10-21T14:11:03.145Z,15.90
2022-10-21T14:13:38.489Z,18.90
2022-10-21T14:16:11.371Z,17.30
2022-10-21T14:18:48.171Z,18.80
2022-10-21T14:21:23.863Z,18.80
2022-10-21T14:23:55.614Z,16.40
2022-10-21T14:26:31.043Z,18.00
2022-10-21T14:29:04.230Z,18.20
2022-10-21T14:31:36.068Z,18.40
2022-10-21T14:34:09.943Z,19.40
2022-10-21T14:37:02.505Z,21.30
2022-10-21T14:39:34.607Z,18.50
2022-10-21T14:42:09.997Z,22.00
2022-10-21T14:44:45.526Z,16.90
2022-10-21T14:47:24.330Z,21.40
2022-10-21T14:49:59.836Z,23.20
2022-10-21T14:52:37.668Z,21.00
2022-10-21T14:55:15.360Z,21.30
2022-10-21T14:57:49.400Z,27.00
2022-10-21T15:00:30.238Z,25.10
2022-10-21T15:03:03.394Z,25.30
2022-10-21T15:05:38.679Z,28.00
2022-10-21T15:08:33.179Z,22.90
2022-10-21T15:11:32.204Z,23.80
2022-10-21T15:14:24.162Z,25.10
2022-10-21T15:16:58.069Z,26.50
2022-10-21T15:19:35.012Z,25.80
2022-10-21T15:22:19.773Z,24.00
2022-10-21T15:24:52.671Z,24.40
2022-10-21T15:27:32.845Z,28.90
2022-10-21T15:30:18.812Z,27.40
2022-10-21T15:32:51.179Z,28.80
2022-10-21T15:35:24.051Z,32.10
2022-10-21T15:37:56.856Z,30.60
2022-10-21T15:40:28.506Z,33.00
2022-10-21T15:43:00.264Z,34.00
2022-10-21T15:45:32.022Z,36.50
2022-10-21T15:48:03.588Z,39.40
2022-10-21T15:50:36.876Z,34.70
2022-10-21T15:53:08.543Z,38.90
2022-10-21T15:55:42.656Z,28.70
2022-10-21T15:58:15.342Z,32.60
2022-10-21T16:00:47.333Z,24.20
2022-10-21T16:03:19.245Z,19.30
2022-10-21T16:05:51.239Z,17.00
2022-10-21T16:08:22.898Z,18.00
2022-10-21T16:10:54.557Z,17.80
2022-10-21T16:13:26.206Z,16.00
2022-10-21T16:15:57.973Z,15.10
2022-10-21T16:18:29.519Z,17.60
2022-10-21T16:21:01.188Z,18.00
2022-10-21T16:23:32.945Z,14.30
2022-10-21T16:26:04.603Z,15.50
2022-10-21T16:28:36.351Z,13.20
2022-10-21T16:31:10.381Z,15.00
2022-10-21T16:33:42.238Z,17.20
2022-10-21T16:36:19.475Z,15.30
2022-10-21T16:38:52.643Z,11.50
2022-10-21T16:41:29.544Z,11.60
2022-10-21T16:44:01.253Z,13.40
2022-10-21T16:46:36.423Z,10.90
2022-10-21T16:49:13.774Z,15.30
2022-10-21T16:51:47.990Z,13.30
2022-10-21T16:54:20.584Z,14.10
2022-10-21T16:56:55.109Z,12.80
2022-10-21T16:59:27.822Z,13.10
2022-10-21T17:02:01.907Z,14.70
2022-10-21T17:04:33.557Z,11.30
2022-10-21T17:07:05.314Z,12.40
2022-10-21T17:09:37.078Z,11.50
2022-10-21T17:12:11.177Z,12.70
2022-10-21T17:14:43.871Z,13.40
2022-10-21T17:17:17.870Z,12.40
2022-10-21T17:19:50.562Z,12.40
2022-10-21T17:22:24.881Z,12.10
2022-10-21T17:24:56.540Z,13.20
2022-10-21T17:27:28.132Z,13.90
2022-10-21T17:29:59.741Z,12.40
2022-10-21T17:32:31.486Z,9.70
2022-10-21T17:35:03.255Z,15.80
2022-10-21T17:37:34.921Z,13.60
2022-10-21T17:40:08.706Z,15.70
2022-10-21T17:45:14.655Z,15.60
2022-10-21T17:47:49.942Z,13.40
2022-10-21T17:50:26.536Z,14.10
2022-10-21T17:52:58.169Z,15.00
2022-10-21T17:55:29.752Z,12.70
2022-10-21T17:58:01.586Z,11.30
2022-10-21T18:00:33.246Z,13.70
2022-10-21T18:03:04.903Z,12.70
2022-10-21T18:05:36.674Z,14.10
2022-10-21T18:08:08.775Z,12.70
2022-10-21T18:10:40.389Z,11.70
2022-10-21T18:13:14.198Z,12.40
2022-10-21T18:18:16.831Z,12.20
2022-10-21T18:20:48.969Z,12.00
2022-10-21T18:23:20.640Z,11.30
2022-10-21T18:25:52.286Z,13.80
2022-10-21T18:28:24.048Z,11.20
2022-10-21T18:30:55.719Z,12.60
2022-10-21T18:33:27.465Z,13.60
2022-10-21T18:36:07.837Z,14.00
2022-10-21T18:38:40.526Z,15.00
2022-10-21T18:41:20.065Z,14.10
2022-10-21T18:43:56.443Z,15.20
2022-10-21T18:46:28.296Z,16.70
2022-10-21T18:49:00.658Z,15.90
2022-10-21T18:51:32.839Z,16.60
2022-10-21T18:54:05.411Z,15.70
2022-10-21T18:56:37.588Z,16.40
2022-10-21T18:59:10.158Z,16.30
2022-10-21T19:01:42.060Z,16.70
2022-10-21T19:06:50.451Z,16.00
2022-10-21T19:09:25.885Z,16.80
2022-10-21T19:11:59.909Z,20.40
2022-10-21T19:14:32.599Z,18.50
2022-10-21T19:17:04.492Z,20.80
2022-10-21T19:19:39.369Z,17.90
2022-10-21T19:22:12.579Z,17.10
2022-10-21T19:24:44.352Z,16.60
2022-10-21T19:27:16.207Z,15.70
2022-10-21T19:29:47.861Z,16.30
2022-10-21T19:32:19.530Z,16.60
2022-10-21T19:34:51.495Z,17.70
2022-10-21T19:37:23.151Z,14.80
2022-10-21T19:39:54.799Z,18.40
2022-10-21T19:42:27.136Z,16.90
2022-10-21T19:44:58.766Z,18.70
2022-10-21T19:47:31.688Z,20.00
2022-10-21T19:50:03.468Z,18.10
2022-10-21T19:52:35.241Z,13.80
2022-10-21T19:55:08.141Z,16.10
2022-10-21T19:57:39.794Z,18.00
2022-10-21T20:00:13.746Z,19.40
2022-10-21T20:02:45.359Z,15.50
2022-10-21T20:05:17.222Z,18.50
2022-10-21T20:07:48.887Z,17.10
2022-10-21T20:10:23.010Z,18.40
2022-10-21T20:12:54.660Z,22.00
2022-10-21T20:15:28.790Z,19.50
2022-10-21T20:18:00.423Z,21.10
2022-10-21T20:20:32.221Z,21.30
2022-10-21T20:23:03.953Z,19.50
2022-10-21T20:25:35.704Z,20.00
2022-10-21T20:28:07.466Z,20.30
2022-10-21T20:30:39.129Z,21.90
2022-10-21T20:33:10.732Z,17.80
2022-10-21T20:35:45.413Z,18.60
2022-10-21T20:38:17.069Z,16.10
2022-10-21T20:40:55.975Z,19.70
2022-10-21T20:43:27.652Z,20.80
2022-10-21T20:46:03.088Z,18.20
2022-10-21T20:48:36.689Z,20.40
2022-10-21T20:51:10.292Z,18.50
2022-10-21T20:53:44.813Z,21.50
2022-10-21T20:56:16.817Z,21.10
2022-10-21T20:58:48.883Z,20.10
2022-10-21T21:01:24.514Z,19.80
2022-10-21T21:03:57.788Z,21.20
2022-10-21T21:06:29.809Z,17.50
2022-10-21T21:09:29.354Z,17.70
2022-10-21T21:11:52.775Z,16.40
2022-10-21T21:14:25.202Z,17.80
2022-10-21T21:16:57.114Z,17.50
2022-10-21T21:19:28.731Z,17.40
2022-10-21T21:22:00.196Z,16.20
2022-10-21T21:24:31.681Z,13.50
2022-10-21T21:27:03.124Z,18.30
2022-10-21T21:29:35.732Z,14.40
2022-10-21T21:32:08.134Z,13.10
2022-10-21T21:34:39.597Z,15.00
2022-10-21T21:37:11.037Z,12.60
2022-10-21T21:39:42.491Z,13.80
2022-10-21T21:42:13.925Z,12.80
2022-10-21T21:44:45.434Z,12.90
2022-10-21T21:47:17.083Z,12.50
2022-10-21T21:49:48.605Z,12.40
2022-10-21T21:52:20.174Z,12.60
2022-10-21T21:54:54.453Z,12.70
2022-10-21T21:57:28.257Z,13.50
2022-10-21T22:00:00.495Z,13.20
2022-10-21T22:02:32.125Z,13.70
2022-10-21T22:05:03.566Z,14.90
2022-10-21T22:07:35.142Z,16.50
2022-10-21T22:10:07.981Z,14.20
2022-10-21T22:12:39.543Z,17.10
2022-10-21T22:15:29.636Z,16.60
2022-10-21T22:18:05.923Z,14.20
2022-10-21T22:20:38.838Z,12.50
2022-10-21T22:23:10.412Z,15.00
2022-10-21T22:25:41.844Z,14.00
2022-10-21T22:28:13.380Z,13.90
2022-10-21T22:30:44.821Z,14.40
2022-10-21T22:33:16.205Z,17.20
2022-10-21T22:35:47.726Z,13.90
2022-10-21T22:38:19.218Z,13.60
2022-10-21T22:40:58.520Z,12.70
2022-10-21T22:43:31.196Z,16.70
2022-10-21T22:46:09.635Z,14.00
2022-10-21T22:48:46.686Z,14.80
2022-10-21T22:51:18.116Z,14.50
2022-10-21T22:53:55.077Z,15.10
2022-10-21T22:56:32.614Z,16.30
2022-10-21T22:59:04.744Z,14.20
2022-10-21T23:01:36.150Z,14.90
2022-10-21T23:04:08.046Z,14.30
2022-10-21T23:06:39.523Z,15.00
2022-10-21T23:09:11.081Z,16.10
2022-10-21T23:11:42.565Z,13.20
2022-10-21T23:14:14.116Z,13.20
2022-10-21T23:16:45.615Z,15.30
2022-10-21T23:19:18.039Z,13.30
2022-10-21T23:21:49.480Z,16.00
2022-10-21T23:24:20.937Z,14.40
2022-10-21T23:26:57.625Z,14.00
2022-10-21T23:29:32.709Z,18.60
2022-10-21T23:32:04.102Z,15.50
2022-10-21T23:34:35.556Z,15.90
2022-10-21T23:37:07.185Z,16.30
2022-10-21T23:39:38.799Z,15.80
2022-10-21T23:42:10.217Z,15.80
2022-10-21T23:44:41.603Z,9.60
2022-10-21T23:47:13.074Z,14.40
2022-10-21T23:49:44.495Z,12.00
2022-10-21T23:52:16.047Z,11.30
2022-10-21T23:54:47.490Z,12.50
2022-10-21T23:57:18.946Z,16.10
2022-10-21T23:59:50.416Z,10.90
